Savanna, IL (61074)

2:09 PM CST on February 01, 2015 (GMT -0600)
Tri-Township | Change Station
CLOSE
Current Station
Airport
Location: Savanna,
Elevation: 617 ft
Nearby Weather Stations
Active Advisory: Winter Storm Warning Active Notice: Local Storm Report

Elev 617 ft 42.05 °N, 90.11 °W | Updated 14 minutes ago

Snow
Snow
23 °F
Feels Like 9 °F
N
18
Wind Variable Wind from NNE
Gusts 25 mph

Today
High -- | Low -- °F
--% Chance of Precip.
Yesterday
High -- | Low -- °F
Precip. -- in
7:13 AM 5:14 PM
Waxing Gibbous, 96% visible
Pressure 29.81 in
Visibility 1.0 miles
Clouds Overcast 600 ft
Windchill 9 °F
Dew Point 19 °F
Humidity 85%
Rainfall 0.13 in
Snow Depth Not available.
UV 1 out of 12
Pollen .10 out of 12
Air Quality Not available.
Flu Activity Not available.
METAR KSFY 011955Z AUTO 03016G22KT 1SM -SN OVC006 M05/M07 A2981 RMK AO2 T10501071

More Conditions Fewer Conditions

Pressure 29.81 in
Visibility 1.0 miles
Clouds Overcast 600 ft
Windchill 9 °F
Dew Point 19 °F
Humidity 85%
Rainfall 0.13 in
Snow Depth Not available.
UV 1 out of 12
Pollen .10 out of 12
Air Quality Not available.
Flu Activity Not available.
METAR KSFY 011955Z AUTO 03016G22KT 1SM -SN OVC006 M05/M07 A2981 RMK AO2 T10501071

More Conditions Fewer Conditions

10-Day Weather Forecast

Almanac

Astronomy

Feb. 01, 2015 Rise Set
Actual Time
Civil Twilight
Nautical Twilight
Astronomical Twilight
Moon
Length of Visible Light
Length of Day
Tomorrow will be .
, % of the Moon is Illuminated

Today's Extremes

State Highs State Lows

Community

WunderPhotos

Upload Photos

1,792,480 photos uploaded!

WunderBlogs® & News

Nearby

Air Quality

  Air Quality AQ Index Pollutant
Not available.

Snow Depth

Station Depth Elevation

Earthquake Activity

City Distance Mag. Time & Date
Minimum magnitude displayed is 2.5.

Coastal Water Temperatures

Place Temperature

Nearby Weather Stations